DLH179 EDDH-EKCH
Flight info
| Callsign | DLH179 |
|---|---|
| Flight time | 0h 34m |
| Altitude | 23000 |
| Route | LUGEG3G LUGEG P605 GESKA Z711 MONAK |
| Aircraft | A320/M-SDE3FGHIRWY/LB1 |
Departure
| Time | 2026-04-30 19:01 |
|---|---|
| Airport | Hamburg Helmut Schmidt Airport (EDDH) |
Arrival
| Time | 2026-04-30 19:36 |
|---|---|
| Airport | Copenhagen Kastrup Airport (EKCH) |
| Time | Latitude | Longitude | Altitude | Speed | Heading |
|---|---|---|---|---|---|
| 2026-04-30 18:00 | 53.63032 | 10.00349 | 51 ft | 0 kts | 122° |
| 2026-04-30 18:03 | 53.63033 | 10.00349 | 51 ft | 0 kts | 122° |
| 2026-04-30 18:45 | 53.63044 | 10.00318 | 47 ft | 4 kts | 122° |
| 2026-04-30 18:45 | 53.63059 | 10.00280 | 49 ft | 4 kts | 122° |
| 2026-04-30 18:46 | 53.63073 | 10.00243 | 46 ft | 2 kts | 122° |
| 2026-04-30 18:46 | 53.63085 | 10.00211 | 47 ft | 4 kts | 131° |
| 2026-04-30 18:46 | 53.63103 | 10.00193 | 48 ft | 3 kts | 176° |
| 2026-04-30 18:46 | 53.63106 | 10.00193 | 48 ft | 0 kts | 176° |
| 2026-04-30 18:49 | 53.63100 | 10.00193 | 49 ft | 0 kts | 178° |
| 2026-04-30 18:49 | 53.63093 | 10.00193 | 50 ft | 3 kts | 182° |
| 2026-04-30 18:49 | 53.63060 | 10.00172 | 49 ft | 5 kts | 208° |
| 2026-04-30 18:49 | 53.63041 | 10.00154 | 51 ft | 3 kts | 211° |
| 2026-04-30 18:50 | 53.63019 | 10.00131 | 51 ft | 3 kts | 212° |
| 2026-04-30 18:50 | 53.62973 | 10.00080 | 51 ft | 10 kts | 212° |
| 2026-04-30 18:50 | 53.62926 | 10.00012 | 50 ft | 9 kts | 237° |
| 2026-04-30 18:50 | 53.62902 | 9.99931 | 49 ft | 6 kts | 243° |
| 2026-04-30 18:51 | 53.62897 | 9.99915 | 50 ft | 0 kts | 243° |
| 2026-04-30 18:59 | 53.62895 | 9.99907 | 48 ft | 4 kts | 243° |
| 2026-04-30 19:00 | 53.62872 | 9.99747 | 46 ft | 4 kts | 317° |
| 2026-04-30 19:00 | 53.62882 | 9.99736 | 49 ft | 0 kts | 329° |
| 2026-04-30 19:00 | 53.63110 | 9.99535 | 50 ft | 78 kts | 333° |
| 2026-04-30 19:01 | 53.64816 | 9.98064 | 211 ft | 178 kts | 334° |
| 2026-04-30 19:01 | 53.65918 | 9.97126 | 942 ft | 179 kts | 335° |
| 2026-04-30 19:02 | 53.68237 | 9.95126 | 2092 ft | 206 kts | 336° |
| 2026-04-30 19:02 | 53.71201 | 9.94701 | 3413 ft | 221 kts | 2° |
| 2026-04-30 19:03 | 53.73975 | 9.96549 | 5074 ft | 231 kts | 52° |
| 2026-04-30 19:03 | 53.75542 | 10.01739 | 6485 ft | 259 kts | 65° |
| 2026-04-30 19:04 | 53.77116 | 10.07257 | 8179 ft | 269 kts | 65° |
| 2026-04-30 19:04 | 53.78753 | 10.12908 | 8409 ft | 267 kts | 65° |
| 2026-04-30 19:05 | 53.80393 | 10.18582 | 9038 ft | 271 kts | 65° |
| 2026-04-30 19:05 | 53.82050 | 10.24360 | 10312 ft | 276 kts | 64° |
| 2026-04-30 19:06 | 53.83796 | 10.30463 | 10476 ft | 312 kts | 64° |
| 2026-04-30 19:06 | 53.84743 | 10.33770 | 10463 ft | 319 kts | 64° |
| 2026-04-30 19:06 | 53.86693 | 10.40593 | 11130 ft | 325 kts | 65° |
| 2026-04-30 19:07 | 53.88653 | 10.47517 | 13009 ft | 328 kts | 65° |
| 2026-04-30 19:07 | 53.89652 | 10.50996 | 13879 ft | 332 kts | 62° |
| 2026-04-30 19:08 | 53.92920 | 10.56645 | 15270 ft | 344 kts | 42° |
| 2026-04-30 19:08 | 53.96506 | 10.62101 | 16822 ft | 348 kts | 43° |
| 2026-04-30 19:08 | 53.98277 | 10.64903 | 17610 ft | 348 kts | 43° |
| 2026-04-30 19:09 | 54.01863 | 10.70495 | 18947 ft | 357 kts | 42° |
| 2026-04-30 19:09 | 54.03719 | 10.73327 | 19539 ft | 361 kts | 41° |
| 2026-04-30 19:09 | 54.05598 | 10.76192 | 20145 ft | 364 kts | 41° |
| 2026-04-30 19:10 | 54.09392 | 10.82002 | 21331 ft | 370 kts | 41° |
| 2026-04-30 19:10 | 54.13235 | 10.87937 | 22495 ft | 376 kts | 41° |
| 2026-04-30 19:11 | 54.15177 | 10.90951 | 23054 ft | 379 kts | 41° |
| 2026-04-30 19:11 | 54.19103 | 10.97053 | 23441 ft | 383 kts | 41° |
| 2026-04-30 19:11 | 54.21072 | 11.00120 | 23446 ft | 384 kts | 41° |
| 2026-04-30 19:12 | 54.23042 | 11.03187 | 23451 ft | 384 kts | 41° |
| 2026-04-30 19:12 | 54.24997 | 11.06197 | 23453 ft | 383 kts | 40° |
| 2026-04-30 19:12 | 54.27026 | 11.09143 | 23441 ft | 383 kts | 39° |
| 2026-04-30 19:13 | 54.31093 | 11.15058 | 23446 ft | 383 kts | 40° |
| 2026-04-30 19:13 | 54.35061 | 11.21161 | 23452 ft | 383 kts | 41° |
| 2026-04-30 19:13 | 54.37015 | 11.24265 | 23445 ft | 383 kts | 42° |
| 2026-04-30 19:14 | 54.38963 | 11.27390 | 23449 ft | 383 kts | 42° |
| 2026-04-30 19:14 | 54.40912 | 11.30518 | 23452 ft | 383 kts | 42° |
| 2026-04-30 19:14 | 54.42861 | 11.33633 | 23441 ft | 383 kts | 41° |
| 2026-04-30 19:14 | 54.44816 | 11.36739 | 23445 ft | 383 kts | 41° |
| 2026-04-30 19:15 | 54.46746 | 11.39802 | 23444 ft | 383 kts | 41° |
| 2026-04-30 19:15 | 54.50661 | 11.46027 | 23445 ft | 383 kts | 41° |
| 2026-04-30 19:15 | 54.52591 | 11.49114 | 23221 ft | 376 kts | 41° |
| 2026-04-30 19:16 | 54.54492 | 11.52164 | 22951 ft | 372 kts | 42° |
| 2026-04-30 19:16 | 54.56381 | 11.55199 | 22684 ft | 370 kts | 42° |
| 2026-04-30 19:16 | 54.60122 | 11.61209 | 22162 ft | 366 kts | 42° |
| 2026-04-30 19:17 | 54.61981 | 11.64196 | 21898 ft | 365 kts | 42° |
| 2026-04-30 19:17 | 54.65631 | 11.70075 | 21190 ft | 353 kts | 42° |
| 2026-04-30 19:17 | 54.67390 | 11.72918 | 20748 ft | 348 kts | 42° |
| 2026-04-30 19:18 | 54.70325 | 11.77668 | 20000 ft | 342 kts | 42° |
| 2026-04-30 19:18 | 54.72610 | 11.81368 | 19389 ft | 339 kts | 42° |
| 2026-04-30 19:18 | 54.74324 | 11.84155 | 18934 ft | 337 kts | 42° |
| 2026-04-30 19:19 | 54.76027 | 11.86924 | 18424 ft | 335 kts | 42° |
| 2026-04-30 19:19 | 54.77718 | 11.89675 | 17962 ft | 332 kts | 42° |
| 2026-04-30 19:19 | 54.81054 | 11.95111 | 17026 ft | 326 kts | 43° |
| 2026-04-30 19:20 | 54.82680 | 11.97765 | 16598 ft | 324 kts | 43° |
| 2026-04-30 19:20 | 54.84312 | 12.00433 | 16150 ft | 322 kts | 43° |
| 2026-04-30 19:20 | 54.87549 | 12.05736 | 15254 ft | 318 kts | 43° |
| 2026-04-30 19:21 | 54.89156 | 12.08374 | 14819 ft | 317 kts | 44° |
| 2026-04-30 19:21 | 54.92437 | 12.13765 | 13117 ft | 334 kts | 44° |
| 2026-04-30 19:22 | 54.95844 | 12.19361 | 11824 ft | 334 kts | 44° |
| 2026-04-30 19:22 | 55.00747 | 12.27484 | 10764 ft | 310 kts | 43° |
| 2026-04-30 19:23 | 55.05162 | 12.34802 | 10317 ft | 278 kts | 43° |
| 2026-04-30 19:24 | 55.07936 | 12.39408 | 9693 ft | 273 kts | 43° |
| 2026-04-30 19:24 | 55.09304 | 12.41685 | 9315 ft | 271 kts | 44° |
| 2026-04-30 19:24 | 55.12022 | 12.46203 | 8564 ft | 268 kts | 44° |
| 2026-04-30 19:25 | 55.16022 | 12.52892 | 7461 ft | 262 kts | 44° |
| 2026-04-30 19:26 | 55.18618 | 12.57250 | 6697 ft | 259 kts | 44° |
| 2026-04-30 19:26 | 55.21147 | 12.61500 | 5919 ft | 258 kts | 44° |
| 2026-04-30 19:26 | 55.22444 | 12.63675 | 5664 ft | 259 kts | 44° |
| 2026-04-30 19:27 | 55.25445 | 12.67118 | 5165 ft | 259 kts | 29° |
| 2026-04-30 19:27 | 55.28644 | 12.69868 | 4658 ft | 258 kts | 11° |
| 2026-04-30 19:28 | 55.30416 | 12.69696 | 4404 ft | 258 kts | 342° |
| 2026-04-30 19:28 | 55.32766 | 12.65281 | 3905 ft | 262 kts | 289° |
| 2026-04-30 19:29 | 55.33694 | 12.59118 | 3420 ft | 261 kts | 285° |
| 2026-04-30 19:29 | 55.34117 | 12.56014 | 3155 ft | 259 kts | 285° |
| 2026-04-30 19:30 | 55.37100 | 12.48879 | 2997 ft | 239 kts | 325° |
| 2026-04-30 19:30 | 55.39616 | 12.45641 | 3005 ft | 220 kts | 325° |
| 2026-04-30 19:31 | 55.42247 | 12.43092 | 3012 ft | 217 kts | 357° |
| 2026-04-30 19:31 | 55.43742 | 12.43444 | 3014 ft | 215 kts | 13° |
| 2026-04-30 19:31 | 55.46467 | 12.44788 | 3015 ft | 199 kts | 15° |
| 2026-04-30 19:32 | 55.47779 | 12.45463 | 2977 ft | 192 kts | 15° |
| 2026-04-30 19:32 | 55.49044 | 12.46117 | 2798 ft | 189 kts | 15° |
| 2026-04-30 19:32 | 55.50285 | 12.46820 | 2467 ft | 187 kts | 23° |
| 2026-04-30 19:32 | 55.51327 | 12.48204 | 2156 ft | 187 kts | 37° |
| 2026-04-30 19:33 | 55.52272 | 12.49660 | 1909 ft | 176 kts | 37° |
| 2026-04-30 19:33 | 55.53177 | 12.51050 | 1659 ft | 169 kts | 37° |
| 2026-04-30 19:33 | 55.54068 | 12.52417 | 1424 ft | 174 kts | 37° |
| 2026-04-30 19:33 | 55.54953 | 12.53780 | 1200 ft | 162 kts | 37° |
| 2026-04-30 19:34 | 55.55747 | 12.55006 | 982 ft | 143 kts | 36° |
| 2026-04-30 19:34 | 55.56472 | 12.56118 | 750 ft | 134 kts | 38° |
| 2026-04-30 19:34 | 55.57851 | 12.58239 | 415 ft | 130 kts | 39° |
| 2026-04-30 19:35 | 55.58525 | 12.59282 | 259 ft | 129 kts | 40° |
| 2026-04-30 19:35 | 55.59188 | 12.60307 | 85 ft | 128 kts | 39° |
| 2026-04-30 19:35 | 55.59823 | 12.61281 | 23 ft | 102 kts | 41° |
| 2026-04-30 19:35 | 55.60241 | 12.61925 | 24 ft | 66 kts | 40° |
| 2026-04-30 19:36 | 55.60510 | 12.62282 | 28 ft | 33 kts | 23° |
| 2026-04-30 19:36 | 55.60667 | 12.62359 | 25 ft | 10 kts | 8° |
| 2026-04-30 19:36 | 55.60832 | 12.62462 | 24 ft | 16 kts | 40° |
| 2026-04-30 19:37 | 55.60923 | 12.62602 | 24 ft | 19 kts | 41° |
| 2026-04-30 19:37 | 55.61029 | 12.62766 | 24 ft | 22 kts | 41° |
| 2026-04-30 19:37 | 55.61148 | 12.62950 | 24 ft | 22 kts | 41° |
| 2026-04-30 19:37 | 55.61267 | 12.63135 | 24 ft | 24 kts | 41° |
| 2026-04-30 19:38 | 55.61386 | 12.63317 | 24 ft | 23 kts | 41° |
| 2026-04-30 19:38 | 55.61512 | 12.63511 | 25 ft | 25 kts | 41° |
| 2026-04-30 19:38 | 55.61636 | 12.63705 | 24 ft | 23 kts | 41° |
| 2026-04-30 19:38 | 55.61752 | 12.63889 | 24 ft | 23 kts | 41° |
| 2026-04-30 19:39 | 55.61881 | 12.64074 | 24 ft | 23 kts | 31° |
| 2026-04-30 19:39 | 55.62017 | 12.64191 | 24 ft | 20 kts | 25° |
| 2026-04-30 19:39 | 55.62131 | 12.64287 | 26 ft | 11 kts | 25° |
| 2026-04-30 19:39 | 55.62148 | 12.64301 | 23 ft | 0 kts | 25° |
| 2026-04-30 19:40 | 55.62149 | 12.64302 | 23 ft | 2 kts | 25° |
| 2026-04-30 19:41 | 55.62209 | 12.64352 | 22 ft | 15 kts | 23° |
| 2026-04-30 19:41 | 55.62281 | 12.64290 | 22 ft | 14 kts | 307° |
| 2026-04-30 19:41 | 55.62342 | 12.64131 | 21 ft | 17 kts | 304° |
| 2026-04-30 19:41 | 55.62411 | 12.63942 | 22 ft | 19 kts | 303° |
| 2026-04-30 19:42 | 55.62514 | 12.63779 | 23 ft | 21 kts | 342° |
| 2026-04-30 19:42 | 55.62646 | 12.63808 | 24 ft | 17 kts | 29° |
| 2026-04-30 19:42 | 55.62752 | 12.63929 | 26 ft | 19 kts | 33° |
| 2026-04-30 19:42 | 55.62823 | 12.63935 | 26 ft | 8 kts | 330° |
| 2026-04-30 19:43 | 55.62870 | 12.63928 | 24 ft | 7 kts | 11° |
| 2026-04-30 19:43 | 55.62879 | 12.63931 | 24 ft | 0 kts | 11° |
| 2026-04-30 19:43 | 55.62889 | 12.63935 | 24 ft | 1 kts | 12° |
| 2026-04-30 19:44 | 55.62895 | 12.63937 | 24 ft | 0 kts | 12° |